sensor_id;sensor_type;location;lat;lon;timestamp;P1;durP1;ratioP1;P2;durP2;ratioP2
70467;SDS011;57934;51.532;7.684;2024-01-15T00:01:46;92.90;;;31.52;;
70467;SDS011;57934;51.532;7.684;2024-01-15T00:04:12;77.45;;;31.67;;
70467;SDS011;57934;51.532;7.684;2024-01-15T00:06:37;74.85;;;30.50;;
70467;SDS011;57934;51.532;7.684;2024-01-15T00:09:03;87.30;;;32.00;;
70467;SDS011;57934;51.532;7.684;2024-01-15T00:11:29;77.85;;;31.23;;
70467;SDS011;57934;51.532;7.684;2024-01-15T00:13:54;87.22;;;31.42;;
70467;SDS011;57934;51.532;7.684;2024-01-15T00:16:20;81.20;;;31.73;;
70467;SDS011;57934;51.532;7.684;2024-01-15T00:18:46;84.13;;;32.33;;
70467;SDS011;57934;51.532;7.684;2024-01-15T00:21:11;86.35;;;32.03;;
70467;SDS011;57934;51.532;7.684;2024-01-15T00:23:39;96.65;;;34.17;;
70467;SDS011;57934;51.532;7.684;2024-01-15T00:26:05;94.63;;;32.28;;
70467;SDS011;57934;51.532;7.684;2024-01-15T00:28:31;95.40;;;34.38;;
70467;SDS011;57934;51.532;7.684;2024-01-15T00:30:56;98.25;;;33.63;;
70467;SDS011;57934;51.532;7.684;2024-01-15T00:33:22;100.68;;;32.63;;
70467;SDS011;57934;51.532;7.684;2024-01-15T00:35:48;87.35;;;32.28;;
70467;SDS011;57934;51.532;7.684;2024-01-15T00:38:13;99.10;;;36.30;;
70467;SDS011;57934;51.532;7.684;2024-01-15T00:40:39;93.13;;;34.20;;
70467;SDS011;57934;51.532;7.684;2024-01-15T00:43:04;101.40;;;35.70;;
70467;SDS011;57934;51.532;7.684;2024-01-15T00:45:33;92.43;;;34.15;;
70467;SDS011;57934;51.532;7.684;2024-01-15T00:47:58;105.95;;;36.50;;
70467;SDS011;57934;51.532;7.684;2024-01-15T00:50:26;89.13;;;33.47;;
70467;SDS011;57934;51.532;7.684;2024-01-15T00:52:52;100.65;;;36.40;;
70467;SDS011;57934;51.532;7.684;2024-01-15T00:55:17;99.15;;;34.63;;
70467;SDS011;57934;51.532;7.684;2024-01-15T00:57:43;90.63;;;34.08;;
70467;SDS011;57934;51.532;7.684;2024-01-15T01:00:09;101.40;;;35.95;;
70467;SDS011;57934;51.532;7.684;2024-01-15T01:02:35;117.70;;;38.63;;
70467;SDS011;57934;51.532;7.684;2024-01-15T01:05:00;111.50;;;37.33;;
70467;SDS011;57934;51.532;7.684;2024-01-15T01:07:26;100.82;;;36.22;;
70467;SDS011;57934;51.532;7.684;2024-01-15T01:09:52;100.80;;;37.53;;
70467;SDS011;57934;51.532;7.684;2024-01-15T01:12:17;102.53;;;36.22;;
70467;SDS011;57934;51.532;7.684;2024-01-15T01:14:46;106.18;;;36.58;;
70467;SDS011;57934;51.532;7.684;2024-01-15T01:17:12;111.13;;;36.70;;
70467;SDS011;57934;51.532;7.684;2024-01-15T01:19:37;106.28;;;35.55;;
70467;SDS011;57934;51.532;7.684;2024-01-15T01:22:03;105.68;;;35.97;;
70467;SDS011;57934;51.532;7.684;2024-01-15T01:24:32;95.97;;;35.35;;
70467;SDS011;57934;51.532;7.684;2024-01-15T01:26:58;107.70;;;36.05;;
70467;SDS011;57934;51.532;7.684;2024-01-15T01:29:24;105.45;;;37.05;;
70467;SDS011;57934;51.532;7.684;2024-01-15T01:31:49;100.72;;;33.97;;
70467;SDS011;57934;51.532;7.684;2024-01-15T01:34:15;99.30;;;36.22;;
70467;SDS011;57934;51.532;7.684;2024-01-15T01:36:41;100.93;;;36.25;;
70467;SDS011;57934;51.532;7.684;2024-01-15T01:39:07;109.95;;;36.35;;
70467;SDS011;57934;51.532;7.684;2024-01-15T01:41:33;96.22;;;35.03;;
70467;SDS011;57934;51.532;7.684;2024-01-15T01:44:02;98.32;;;35.85;;
70467;SDS011;57934;51.532;7.684;2024-01-15T01:46:28;85.78;;;33.22;;
70467;SDS011;57934;51.532;7.684;2024-01-15T01:48:54;89.38;;;33.22;;
70467;SDS011;57934;51.532;7.684;2024-01-15T01:51:21;98.22;;;34.20;;
70467;SDS011;57934;51.532;7.684;2024-01-15T01:53:48;87.85;;;31.95;;
70467;SDS011;57934;51.532;7.684;2024-01-15T01:56:14;90.63;;;34.67;;
70467;SDS011;57934;51.532;7.684;2024-01-15T01:58:40;92.55;;;31.88;;
70467;SDS011;57934;51.532;7.684;2024-01-15T02:01:05;86.65;;;31.58;;
70467;SDS011;57934;51.532;7.684;2024-01-15T02:03:31;98.05;;;32.80;;
70467;SDS011;57934;51.532;7.684;2024-01-15T02:05:57;95.07;;;33.60;;
70467;SDS011;57934;51.532;7.684;2024-01-15T02:08:25;94.75;;;31.55;;
70467;SDS011;57934;51.532;7.684;2024-01-15T02:10:50;88.28;;;31.13;;
70467;SDS011;57934;51.532;7.684;2024-01-15T02:13:17;83.38;;;30.13;;
70467;SDS011;57934;51.532;7.684;2024-01-15T02:15:42;85.05;;;30.25;;
70467;SDS011;57934;51.532;7.684;2024-01-15T02:18:08;84.63;;;31.92;;
70467;SDS011;57934;51.532;7.684;2024-01-15T02:20:34;82.07;;;30.55;;
70467;SDS011;57934;51.532;7.684;2024-01-15T02:23:12;75.85;;;29.45;;
70467;SDS011;57934;51.532;7.684;2024-01-15T02:25:39;84.68;;;30.08;;
70467;SDS011;57934;51.532;7.684;2024-01-15T02:28:05;83.55;;;31.17;;
70467;SDS011;57934;51.532;7.684;2024-01-15T02:30:31;88.32;;;32.25;;
70467;SDS011;57934;51.532;7.684;2024-01-15T02:32:57;90.05;;;31.40;;
70467;SDS011;57934;51.532;7.684;2024-01-15T02:35:22;84.75;;;32.17;;
70467;SDS011;57934;51.532;7.684;2024-01-15T02:37:48;92.95;;;33.67;;
70467;SDS011;57934;51.532;7.684;2024-01-15T02:40:14;81.70;;;33.35;;
70467;SDS011;57934;51.532;7.684;2024-01-15T02:42:39;84.88;;;31.02;;
70467;SDS011;57934;51.532;7.684;2024-01-15T02:45:05;90.43;;;31.58;;
70467;SDS011;57934;51.532;7.684;2024-01-15T02:47:31;77.45;;;32.00;;
70467;SDS011;57934;51.532;7.684;2024-01-15T02:49:56;82.43;;;31.25;;
70467;SDS011;57934;51.532;7.684;2024-01-15T02:52:22;77.78;;;31.17;;
70467;SDS011;57934;51.532;7.684;2024-01-15T02:54:48;75.32;;;29.25;;
70467;SDS011;57934;51.532;7.684;2024-01-15T02:57:13;81.13;;;30.10;;
70467;SDS011;57934;51.532;7.684;2024-01-15T02:59:39;89.32;;;29.85;;
70467;SDS011;57934;51.532;7.684;2024-01-15T03:02:07;67.15;;;26.27;;
70467;SDS011;57934;51.532;7.684;2024-01-15T03:04:33;74.35;;;27.65;;
70467;SDS011;57934;51.532;7.684;2024-01-15T03:06:59;69.50;;;29.05;;
70467;SDS011;57934;51.532;7.684;2024-01-15T03:09:24;76.60;;;28.85;;
70467;SDS011;57934;51.532;7.684;2024-01-15T03:11:50;70.30;;;27.58;;
70467;SDS011;57934;51.532;7.684;2024-01-15T03:14:16;68.90;;;27.48;;
70467;SDS011;57934;51.532;7.684;2024-01-15T03:16:41;79.10;;;27.77;;
70467;SDS011;57934;51.532;7.684;2024-01-15T03:19:07;66.60;;;28.00;;
70467;SDS011;57934;51.532;7.684;2024-01-15T03:21:33;72.72;;;30.15;;
70467;SDS011;57934;51.532;7.684;2024-01-15T03:23:58;72.25;;;28.20;;
70467;SDS011;57934;51.532;7.684;2024-01-15T03:26:24;68.50;;;28.88;;
70467;SDS011;57934;51.532;7.684;2024-01-15T03:28:50;70.03;;;26.92;;
70467;SDS011;57934;51.532;7.684;2024-01-15T03:31:15;74.03;;;27.17;;
70467;SDS011;57934;51.532;7.684;2024-01-15T03:33:41;71.90;;;29.08;;
70467;SDS011;57934;51.532;7.684;2024-01-15T03:36:07;70.65;;;28.77;;
70467;SDS011;57934;51.532;7.684;2024-01-15T03:38:32;75.18;;;28.63;;
70467;SDS011;57934;51.532;7.684;2024-01-15T03:40:58;70.00;;;27.15;;
70467;SDS011;57934;51.532;7.684;2024-01-15T03:43:24;79.18;;;29.33;;
70467;SDS011;57934;51.532;7.684;2024-01-15T03:45:49;73.28;;;26.73;;
70467;SDS011;57934;51.532;7.684;2024-01-15T03:48:15;71.07;;;26.73;;
70467;SDS011;57934;51.532;7.684;2024-01-15T03:50:41;76.45;;;28.00;;
70467;SDS011;57934;51.532;7.684;2024-01-15T03:53:06;64.45;;;28.13;;
70467;SDS011;57934;51.532;7.684;2024-01-15T03:55:32;73.45;;;26.80;;
70467;SDS011;57934;51.532;7.684;2024-01-15T03:57:58;66.20;;;26.10;;
70467;SDS011;57934;51.532;7.684;2024-01-15T04:00:23;63.63;;;25.27;;
70467;SDS011;57934;51.532;7.684;2024-01-15T04:02:49;64.60;;;27.52;;
70467;SDS011;57934;51.532;7.684;2024-01-15T04:05:15;57.38;;;24.85;;
70467;SDS011;57934;51.532;7.684;2024-01-15T04:07:40;73.45;;;28.85;;
70467;SDS011;57934;51.532;7.684;2024-01-15T04:10:06;64.70;;;25.77;;
70467;SDS011;57934;51.532;7.684;2024-01-15T04:12:32;52.45;;;24.05;;
70467;SDS011;57934;51.532;7.684;2024-01-15T04:14:57;63.17;;;26.20;;
70467;SDS011;57934;51.532;7.684;2024-01-15T04:17:23;61.28;;;24.92;;
70467;SDS011;57934;51.532;7.684;2024-01-15T04:19:49;71.72;;;27.23;;
70467;SDS011;57934;51.532;7.684;2024-01-15T04:22:15;63.63;;;23.27;;
70467;SDS011;57934;51.532;7.684;2024-01-15T04:24:40;56.03;;;24.38;;
70467;SDS011;57934;51.532;7.684;2024-01-15T04:27:06;59.22;;;24.08;;
70467;SDS011;57934;51.532;7.684;2024-01-15T04:29:32;61.10;;;25.75;;
70467;SDS011;57934;51.532;7.684;2024-01-15T04:31:58;53.80;;;23.83;;
70467;SDS011;57934;51.532;7.684;2024-01-15T04:34:23;56.78;;;24.98;;
70467;SDS011;57934;51.532;7.684;2024-01-15T04:36:49;62.05;;;25.77;;
70467;SDS011;57934;51.532;7.684;2024-01-15T04:39:15;65.10;;;25.77;;
70467;SDS011;57934;51.532;7.684;2024-01-15T04:41:40;54.53;;;26.40;;
70467;SDS011;57934;51.532;7.684;2024-01-15T04:44:06;49.88;;;25.35;;
70467;SDS011;57934;51.532;7.684;2024-01-15T04:46:32;61.53;;;26.25;;
70467;SDS011;57934;51.532;7.684;2024-01-15T04:48:57;53.83;;;25.02;;
70467;SDS011;57934;51.532;7.684;2024-01-15T04:51:23;63.67;;;24.98;;
70467;SDS011;57934;51.532;7.684;2024-01-15T04:53:49;59.50;;;24.25;;
70467;SDS011;57934;51.532;7.684;2024-01-15T04:56:14;46.53;;;23.50;;
70467;SDS011;57934;51.532;7.684;2024-01-15T04:58:40;63.50;;;24.95;;
70467;SDS011;57934;51.532;7.684;2024-01-15T05:01:07;48.80;;;23.13;;
70467;SDS011;57934;51.532;7.684;2024-01-15T05:03:33;48.85;;;22.80;;
70467;SDS011;57934;51.532;7.684;2024-01-15T05:05:58;51.53;;;23.38;;
70467;SDS011;57934;51.532;7.684;2024-01-15T05:08:24;44.90;;;21.52;;
70467;SDS011;57934;51.532;7.684;2024-01-15T05:10:50;42.13;;;21.25;;
70467;SDS011;57934;51.532;7.684;2024-01-15T05:13:18;41.60;;;21.65;;
70467;SDS011;57934;51.532;7.684;2024-01-15T05:15:45;42.05;;;20.83;;
70467;SDS011;57934;51.532;7.684;2024-01-15T05:18:10;38.15;;;18.90;;
70467;SDS011;57934;51.532;7.684;2024-01-15T05:20:36;43.88;;;20.77;;
70467;SDS011;57934;51.532;7.684;2024-01-15T05:23:02;38.85;;;19.67;;
70467;SDS011;57934;51.532;7.684;2024-01-15T05:25:27;38.10;;;19.35;;
70467;SDS011;57934;51.532;7.684;2024-01-15T05:27:53;28.98;;;17.25;;
70467;SDS011;57934;51.532;7.684;2024-01-15T05:30:19;31.88;;;17.23;;
70467;SDS011;57934;51.532;7.684;2024-01-15T05:32:48;29.58;;;16.80;;
70467;SDS011;57934;51.532;7.684;2024-01-15T05:35:14;37.15;;;17.52;;
70467;SDS011;57934;51.532;7.684;2024-01-15T05:37:43;35.70;;;16.63;;
70467;SDS011;57934;51.532;7.684;2024-01-15T05:40:09;35.45;;;17.98;;
70467;SDS011;57934;51.532;7.684;2024-01-15T05:42:35;31.38;;;16.27;;
70467;SDS011;57934;51.532;7.684;2024-01-15T05:45:01;37.08;;;16.90;;
70467;SDS011;57934;51.532;7.684;2024-01-15T05:47:29;33.08;;;15.77;;
70467;SDS011;57934;51.532;7.684;2024-01-15T05:49:58;35.88;;;17.50;;
70467;SDS011;57934;51.532;7.684;2024-01-15T05:52:24;33.22;;;16.60;;
70467;SDS011;57934;51.532;7.684;2024-01-15T05:54:50;28.63;;;16.98;;
70467;SDS011;57934;51.532;7.684;2024-01-15T05:57:15;31.35;;;15.93;;
70467;SDS011;57934;51.532;7.684;2024-01-15T05:59:42;34.20;;;16.52;;
70467;SDS011;57934;51.532;7.684;2024-01-15T06:02:11;38.22;;;15.95;;
70467;SDS011;57934;51.532;7.684;2024-01-15T06:04:36;34.13;;;17.50;;
70467;SDS011;57934;51.532;7.684;2024-01-15T06:07:02;35.45;;;17.65;;
70467;SDS011;57934;51.532;7.684;2024-01-15T06:09:28;32.75;;;16.58;;
70467;SDS011;57934;51.532;7.684;2024-01-15T06:11:54;28.00;;;15.95;;
70467;SDS011;57934;51.532;7.684;2024-01-15T06:14:20;30.48;;;16.27;;
70467;SDS011;57934;51.532;7.684;2024-01-15T06:16:46;26.83;;;16.20;;
70467;SDS011;57934;51.532;7.684;2024-01-15T06:19:11;31.88;;;17.17;;
70467;SDS011;57934;51.532;7.684;2024-01-15T06:21:37;36.67;;;19.25;;
70467;SDS011;57934;51.532;7.684;2024-01-15T06:24:03;33.58;;;16.35;;
70467;SDS011;57934;51.532;7.684;2024-01-15T06:26:28;34.47;;;16.35;;
70467;SDS011;57934;51.532;7.684;2024-01-15T06:28:54;25.15;;;16.10;;
70467;SDS011;57934;51.532;7.684;2024-01-15T06:31:21;30.48;;;16.67;;
70467;SDS011;57934;51.532;7.684;2024-01-15T06:33:47;35.70;;;16.10;;
70467;SDS011;57934;51.532;7.684;2024-01-15T06:36:14;29.52;;;15.95;;
70467;SDS011;57934;51.532;7.684;2024-01-15T06:38:39;29.73;;;16.35;;
70467;SDS011;57934;51.532;7.684;2024-01-15T06:41:05;33.47;;;16.13;;
70467;SDS011;57934;51.532;7.684;2024-01-15T06:43:31;26.60;;;14.60;;
70467;SDS011;57934;51.532;7.684;2024-01-15T06:45:57;24.77;;;14.80;;
70467;SDS011;57934;51.532;7.684;2024-01-15T06:48:22;30.15;;;15.77;;
70467;SDS011;57934;51.532;7.684;2024-01-15T06:50:48;32.88;;;16.70;;
70467;SDS011;57934;51.532;7.684;2024-01-15T06:53:14;29.27;;;16.80;;
70467;SDS011;57934;51.532;7.684;2024-01-15T06:55:39;31.20;;;17.33;;
70467;SDS011;57934;51.532;7.684;2024-01-15T06:58:05;35.00;;;17.75;;
70467;SDS011;57934;51.532;7.684;2024-01-15T07:00:31;33.25;;;18.33;;
70467;SDS011;57934;51.532;7.684;2024-01-15T07:02:56;34.13;;;17.15;;
70467;SDS011;57934;51.532;7.684;2024-01-15T07:05:23;32.70;;;17.65;;
70467;SDS011;57934;51.532;7.684;2024-01-15T07:07:49;35.55;;;17.95;;
70467;SDS011;57934;51.532;7.684;2024-01-15T07:10:15;31.55;;;16.45;;
70467;SDS011;57934;51.532;7.684;2024-01-15T07:12:44;30.20;;;16.70;;
70467;SDS011;57934;51.532;7.684;2024-01-15T07:15:10;30.02;;;16.98;;
70467;SDS011;57934;51.532;7.684;2024-01-15T07:17:36;35.20;;;17.17;;
70467;SDS011;57934;51.532;7.684;2024-01-15T07:20:08;33.53;;;16.02;;
70467;SDS011;57934;51.532;7.684;2024-01-15T07:22:35;34.55;;;16.38;;
70467;SDS011;57934;51.532;7.684;2024-01-15T07:25:01;30.15;;;15.50;;
70467;SDS011;57934;51.532;7.684;2024-01-15T07:27:26;30.30;;;16.05;;
70467;SDS011;57934;51.532;7.684;2024-01-15T07:29:52;33.20;;;16.35;;
70467;SDS011;57934;51.532;7.684;2024-01-15T07:32:18;36.13;;;16.35;;
70467;SDS011;57934;51.532;7.684;2024-01-15T07:34:43;35.10;;;18.27;;
70467;SDS011;57934;51.532;7.684;2024-01-15T07:37:10;32.10;;;17.02;;
70467;SDS011;57934;51.532;7.684;2024-01-15T07:39:35;27.98;;;16.77;;
70467;SDS011;57934;51.532;7.684;2024-01-15T07:42:01;28.55;;;16.85;;
70467;SDS011;57934;51.532;7.684;2024-01-15T07:44:27;32.58;;;17.80;;
70467;SDS011;57934;51.532;7.684;2024-01-15T07:46:53;34.28;;;17.92;;
70467;SDS011;57934;51.532;7.684;2024-01-15T07:49:18;33.95;;;18.17;;
70467;SDS011;57934;51.532;7.684;2024-01-15T07:51:44;28.05;;;16.60;;
70467;SDS011;57934;51.532;7.684;2024-01-15T07:54:10;31.13;;;17.80;;
70467;SDS011;57934;51.532;7.684;2024-01-15T07:56:56;29.05;;;17.08;;
70467;SDS011;57934;51.532;7.684;2024-01-15T07:59:22;28.45;;;17.23;;
70467;SDS011;57934;51.532;7.684;2024-01-15T08:01:48;32.40;;;16.60;;
70467;SDS011;57934;51.532;7.684;2024-01-15T08:04:14;28.20;;;17.08;;
70467;SDS011;57934;51.532;7.684;2024-01-15T08:06:39;28.48;;;17.25;;
70467;SDS011;57934;51.532;7.684;2024-01-15T08:09:05;26.17;;;16.00;;
70467;SDS011;57934;51.532;7.684;2024-01-15T08:11:31;27.40;;;17.25;;
70467;SDS011;57934;51.532;7.684;2024-01-15T08:13:56;29.52;;;16.35;;
70467;SDS011;57934;51.532;7.684;2024-01-15T08:16:22;21.77;;;14.38;;
70467;SDS011;57934;51.532;7.684;2024-01-15T08:18:49;28.77;;;15.57;;
70467;SDS011;57934;51.532;7.684;2024-01-15T08:21:15;23.50;;;14.40;;
70467;SDS011;57934;51.532;7.684;2024-01-15T08:23:41;21.88;;;14.05;;
70467;SDS011;57934;51.532;7.684;2024-01-15T08:26:07;20.63;;;12.75;;
70467;SDS011;57934;51.532;7.684;2024-01-15T08:28:33;23.25;;;13.82;;
70467;SDS011;57934;51.532;7.684;2024-01-15T08:30:59;18.17;;;12.23;;
70467;SDS011;57934;51.532;7.684;2024-01-15T08:33:24;19.90;;;12.57;;
70467;SDS011;57934;51.532;7.684;2024-01-15T08:35:50;18.20;;;12.00;;
70467;SDS011;57934;51.532;7.684;2024-01-15T08:38:16;16.35;;;11.55;;
70467;SDS011;57934;51.532;7.684;2024-01-15T08:40:41;21.25;;;12.68;;
70467;SDS011;57934;51.532;7.684;2024-01-15T08:43:07;20.40;;;12.38;;
70467;SDS011;57934;51.532;7.684;2024-01-15T08:45:33;22.65;;;11.40;;
70467;SDS011;57934;51.532;7.684;2024-01-15T08:47:59;19.75;;;11.90;;
70467;SDS011;57934;51.532;7.684;2024-01-15T08:50:24;23.27;;;11.77;;
70467;SDS011;57934;51.532;7.684;2024-01-15T08:52:50;23.27;;;11.70;;
70467;SDS011;57934;51.532;7.684;2024-01-15T08:55:16;20.13;;;10.95;;
70467;SDS011;57934;51.532;7.684;2024-01-15T08:57:41;22.70;;;11.30;;
70467;SDS011;57934;51.532;7.684;2024-01-15T09:00:07;17.13;;;10.45;;
70467;SDS011;57934;51.532;7.684;2024-01-15T09:02:35;15.73;;;10.15;;
70467;SDS011;57934;51.532;7.684;2024-01-15T09:05:01;15.52;;;9.35;;
70467;SDS011;57934;51.532;7.684;2024-01-15T09:07:29;17.65;;;10.10;;
70467;SDS011;57934;51.532;7.684;2024-01-15T09:09:55;17.52;;;10.15;;
70467;SDS011;57934;51.532;7.684;2024-01-15T09:12:21;19.40;;;10.38;;
70467;SDS011;57934;51.532;7.684;2024-01-15T09:14:47;15.48;;;9.82;;
70467;SDS011;57934;51.532;7.684;2024-01-15T09:17:13;18.92;;;10.93;;
70467;SDS011;57934;51.532;7.684;2024-01-15T09:19:39;20.23;;;11.43;;
70467;SDS011;57934;51.532;7.684;2024-01-15T09:22:05;19.10;;;10.57;;
70467;SDS011;57934;51.532;7.684;2024-01-15T09:24:31;19.00;;;11.00;;
70467;SDS011;57934;51.532;7.684;2024-01-15T09:26:56;18.95;;;11.55;;
70467;SDS011;57934;51.532;7.684;2024-01-15T09:29:22;20.33;;;12.57;;
70467;SDS011;57934;51.532;7.684;2024-01-15T09:31:52;25.73;;;13.45;;
70467;SDS011;57934;51.532;7.684;2024-01-15T09:34:17;23.80;;;13.77;;
70467;SDS011;57934;51.532;7.684;2024-01-15T09:36:43;27.23;;;15.23;;
70467;SDS011;57934;51.532;7.684;2024-01-15T09:39:09;26.33;;;15.48;;
70467;SDS011;57934;51.532;7.684;2024-01-15T09:41:36;26.75;;;16.00;;
70467;SDS011;57934;51.532;7.684;2024-01-15T09:44:03;27.23;;;16.65;;
70467;SDS011;57934;51.532;7.684;2024-01-15T09:46:28;27.52;;;16.15;;
70467;SDS011;57934;51.532;7.684;2024-01-15T09:48:54;28.60;;;17.60;;
70467;SDS011;57934;51.532;7.684;2024-01-15T09:51:20;27.27;;;16.42;;
70467;SDS011;57934;51.532;7.684;2024-01-15T09:53:46;27.17;;;17.10;;
70467;SDS011;57934;51.532;7.684;2024-01-15T09:56:12;30.42;;;17.42;;
70467;SDS011;57934;51.532;7.684;2024-01-15T09:58:38;27.00;;;15.15;;
70467;SDS011;57934;51.532;7.684;2024-01-15T10:01:04;29.08;;;16.40;;
70467;SDS011;57934;51.532;7.684;2024-01-15T10:03:30;32.40;;;17.55;;
70467;SDS011;57934;51.532;7.684;2024-01-15T10:05:57;26.27;;;15.27;;
70467;SDS011;57934;51.532;7.684;2024-01-15T10:08:24;26.33;;;14.98;;
70467;SDS011;57934;51.532;7.684;2024-01-15T10:10:50;23.35;;;14.02;;
70467;SDS011;57934;51.532;7.684;2024-01-15T10:13:16;28.08;;;14.70;;
70467;SDS011;57934;51.532;7.684;2024-01-15T10:15:45;23.65;;;13.57;;
70467;SDS011;57934;51.532;7.684;2024-01-15T10:18:12;22.63;;;13.65;;
70467;SDS011;57934;51.532;7.684;2024-01-15T10:20:39;19.58;;;12.60;;
70467;SDS011;57934;51.532;7.684;2024-01-15T10:23:05;21.63;;;12.55;;
70467;SDS011;57934;51.532;7.684;2024-01-15T10:25:30;20.10;;;12.20;;
70467;SDS011;57934;51.532;7.684;2024-01-15T10:28:00;18.67;;;11.98;;
70467;SDS011;57934;51.532;7.684;2024-01-15T10:30:26;19.88;;;11.77;;
70467;SDS011;57934;51.532;7.684;2024-01-15T10:33:01;18.75;;;11.35;;
70467;SDS011;57934;51.532;7.684;2024-01-15T10:35:31;16.27;;;10.13;;
70467;SDS011;57934;51.532;7.684;2024-01-15T10:37:58;17.25;;;10.23;;
70467;SDS011;57934;51.532;7.684;2024-01-15T10:40:25;15.80;;;10.23;;
70467;SDS011;57934;51.532;7.684;2024-01-15T10:42:51;16.83;;;9.93;;
70467;SDS011;57934;51.532;7.684;2024-01-15T10:45:17;13.88;;;8.48;;
70467;SDS011;57934;51.532;7.684;2024-01-15T10:47:43;13.32;;;8.93;;
70467;SDS011;57934;51.532;7.684;2024-01-15T10:50:09;15.25;;;8.85;;
70467;SDS011;57934;51.532;7.684;2024-01-15T10:52:35;16.05;;;8.88;;
70467;SDS011;57934;51.532;7.684;2024-01-15T10:55:01;13.25;;;9.43;;
70467;SDS011;57934;51.532;7.684;2024-01-15T10:57:28;14.63;;;9.25;;
70467;SDS011;57934;51.532;7.684;2024-01-15T10:59:53;14.63;;;9.38;;
70467;SDS011;57934;51.532;7.684;2024-01-15T11:02:19;15.52;;;8.13;;
70467;SDS011;57934;51.532;7.684;2024-01-15T11:04:45;14.88;;;9.15;;
70467;SDS011;57934;51.532;7.684;2024-01-15T11:07:26;15.25;;;9.02;;
70467;SDS011;57934;51.532;7.684;2024-01-15T11:09:52;19.05;;;9.70;;
70467;SDS011;57934;51.532;7.684;2024-01-15T11:12:18;18.52;;;10.27;;
70467;SDS011;57934;51.532;7.684;2024-01-15T11:14:48;19.88;;;10.30;;
70467;SDS011;57934;51.532;7.684;2024-01-15T11:17:15;16.90;;;10.13;;
70467;SDS011;57934;51.532;7.684;2024-01-15T11:22:07;17.67;;;11.70;;
70467;SDS011;57934;51.532;7.684;2024-01-15T11:24:34;21.95;;;12.38;;
70467;SDS011;57934;51.532;7.684;2024-01-15T11:27:00;19.48;;;12.10;;
70467;SDS011;57934;51.532;7.684;2024-01-15T11:34:20;23.52;;;12.82;;
70467;SDS011;57934;51.532;7.684;2024-01-15T11:37:00;28.40;;;12.77;;
70467;SDS011;57934;51.532;7.684;2024-01-15T11:41:52;25.77;;;13.65;;
70467;SDS011;57934;51.532;7.684;2024-01-15T11:44:17;23.95;;;12.18;;
70467;SDS011;57934;51.532;7.684;2024-01-15T11:46:46;22.80;;;12.77;;
70467;SDS011;57934;51.532;7.684;2024-01-15T11:49:18;22.55;;;12.60;;
70467;SDS011;57934;51.532;7.684;2024-01-15T11:51:47;22.92;;;12.40;;
70467;SDS011;57934;51.532;7.684;2024-01-15T11:54:13;22.20;;;11.80;;
70467;SDS011;57934;51.532;7.684;2024-01-15T11:56:40;19.85;;;11.98;;
70467;SDS011;57934;51.532;7.684;2024-01-15T11:59:07;28.98;;;13.07;;
70467;SDS011;57934;51.532;7.684;2024-01-15T12:01:33;15.98;;;10.75;;
70467;SDS011;57934;51.532;7.684;2024-01-15T12:03:59;17.50;;;10.90;;
70467;SDS011;57934;51.532;7.684;2024-01-15T12:06:24;21.13;;;11.73;;
70467;SDS011;57934;51.532;7.684;2024-01-15T12:08:50;16.27;;;9.85;;
70467;SDS011;57934;51.532;7.684;2024-01-15T12:11:16;17.13;;;10.70;;
70467;SDS011;57934;51.532;7.684;2024-01-15T12:13:44;16.90;;;10.18;;
70467;SDS011;57934;51.532;7.684;2024-01-15T12:16:10;14.45;;;9.60;;
70467;SDS011;57934;51.532;7.684;2024-01-15T12:18:36;15.35;;;9.57;;
70467;SDS011;57934;51.532;7.684;2024-01-15T12:21:04;15.88;;;9.20;;
70467;SDS011;57934;51.532;7.684;2024-01-15T12:23:30;11.77;;;7.68;;
70467;SDS011;57934;51.532;7.684;2024-01-15T12:25:56;12.40;;;7.78;;
70467;SDS011;57934;51.532;7.684;2024-01-15T12:28:22;10.82;;;6.88;;
70467;SDS011;57934;51.532;7.684;2024-01-15T12:30:47;11.15;;;6.53;;
70467;SDS011;57934;51.532;7.684;2024-01-15T12:33:17;12.00;;;7.30;;
70467;SDS011;57934;51.532;7.684;2024-01-15T12:35:43;13.60;;;6.55;;
70467;SDS011;57934;51.532;7.684;2024-01-15T12:38:10;10.48;;;6.38;;
70467;SDS011;57934;51.532;7.684;2024-01-15T12:40:36;13.32;;;7.07;;
70467;SDS011;57934;51.532;7.684;2024-01-15T12:43:01;10.05;;;7.05;;
70467;SDS011;57934;51.532;7.684;2024-01-15T12:45:27;10.40;;;6.97;;
70467;SDS011;57934;51.532;7.684;2024-01-15T12:47:53;17.10;;;7.65;;
70467;SDS011;57934;51.532;7.684;2024-01-15T12:50:19;13.30;;;6.97;;
70467;SDS011;57934;51.532;7.684;2024-01-15T12:52:44;14.10;;;7.10;;
70467;SDS011;57934;51.532;7.684;2024-01-15T12:55:10;12.70;;;7.50;;
70467;SDS011;57934;51.532;7.684;2024-01-15T12:57:36;11.60;;;7.63;;
70467;SDS011;57934;51.532;7.684;2024-01-15T13:00:02;10.75;;;7.35;;
70467;SDS011;57934;51.532;7.684;2024-01-15T13:02:32;12.43;;;7.35;;
70467;SDS011;57934;51.532;7.684;2024-01-15T13:04:58;11.98;;;7.63;;
70467;SDS011;57934;51.532;7.684;2024-01-15T13:07:24;12.60;;;7.18;;
70467;SDS011;57934;51.532;7.684;2024-01-15T13:09:50;13.25;;;8.38;;
70467;SDS011;57934;51.532;7.684;2024-01-15T13:12:19;12.70;;;7.60;;
70467;SDS011;57934;51.532;7.684;2024-01-15T13:14:45;11.27;;;7.53;;
70467;SDS011;57934;51.532;7.684;2024-01-15T13:17:12;13.30;;;7.95;;
70467;SDS011;57934;51.532;7.684;2024-01-15T13:19:40;17.27;;;9.43;;
70467;SDS011;57934;51.532;7.684;2024-01-15T13:22:05;14.02;;;8.52;;
70467;SDS011;57934;51.532;7.684;2024-01-15T13:24:33;15.75;;;10.10;;
70467;SDS011;57934;51.532;7.684;2024-01-15T13:26:59;12.70;;;8.70;;
70467;SDS011;57934;51.532;7.684;2024-01-15T13:29:25;12.85;;;8.10;;
70467;SDS011;57934;51.532;7.684;2024-01-15T13:31:51;13.73;;;8.27;;
70467;SDS011;57934;51.532;7.684;2024-01-15T13:34:16;9.85;;;7.00;;
70467;SDS011;57934;51.532;7.684;2024-01-15T13:36:42;10.90;;;5.75;;
70467;SDS011;57934;51.532;7.684;2024-01-15T13:39:08;8.60;;;6.05;;
70467;SDS011;57934;51.532;7.684;2024-01-15T13:41:34;9.55;;;5.75;;
70467;SDS011;57934;51.532;7.684;2024-01-15T13:44:00;9.43;;;5.35;;
70467;SDS011;57934;51.532;7.684;2024-01-15T13:46:26;8.95;;;5.50;;
70467;SDS011;57934;51.532;7.684;2024-01-15T13:48:52;7.63;;;5.85;;
70467;SDS011;57934;51.532;7.684;2024-01-15T13:51:17;11.05;;;7.10;;
70467;SDS011;57934;51.532;7.684;2024-01-15T13:53:43;8.35;;;5.93;;
70467;SDS011;57934;51.532;7.684;2024-01-15T13:56:09;11.73;;;6.75;;
70467;SDS011;57934;51.532;7.684;2024-01-15T13:58:35;8.00;;;6.10;;
70467;SDS011;57934;51.532;7.684;2024-01-15T14:01:01;9.52;;;6.07;;
70467;SDS011;57934;51.532;7.684;2024-01-15T14:03:29;8.20;;;5.82;;
70467;SDS011;57934;51.532;7.684;2024-01-15T14:05:55;7.57;;;5.25;;
70467;SDS011;57934;51.532;7.684;2024-01-15T14:08:20;7.65;;;5.35;;
70467;SDS011;57934;51.532;7.684;2024-01-15T14:10:46;8.52;;;4.60;;
70467;SDS011;57934;51.532;7.684;2024-01-15T14:13:12;5.60;;;5.10;;
70467;SDS011;57934;51.532;7.684;2024-01-15T14:15:38;10.77;;;5.63;;
70467;SDS011;57934;51.532;7.684;2024-01-15T14:18:03;12.73;;;5.80;;
70467;SDS011;57934;51.532;7.684;2024-01-15T14:20:29;9.98;;;5.18;;
70467;SDS011;57934;51.532;7.684;2024-01-15T14:22:55;7.03;;;5.65;;
70467;SDS011;57934;51.532;7.684;2024-01-15T14:25:21;7.90;;;5.35;;
70467;SDS011;57934;51.532;7.684;2024-01-15T14:27:47;7.15;;;4.68;;